Time;durP1;ratioP1;P1;durP2;ratioP2;P2;SDS_P1;SDS_P2;PMS_P1;PMS_P2;Temp;Humidity;BMP_temperature;BMP_pressure;BME280_temperature;BME280_humidity;BME280_pressure;Samples;Min_cycle;Max_cycle;Signal;HPM_P1;HPM_P2
2023/12/20 00:01:33;;;;;;;10.40;7.00;;;;;;;20.83;30.45;98999.45;104990;1253;61016;-65
2023/12/20 00:04:02;;;;;;;8.70;6.60;;;;;;;20.81;30.27;99002.61;104821;1253;60532;-66
2023/12/20 00:06:30;;;;;;;9.00;7.10;;;;;;;20.61;30.60;99000.60;104593;1259;74644;-65
2023/12/20 00:08:58;;;;;;;11.00;6.50;;;;;;;20.64;30.51;99004.92;104401;1258;68099;-64
2023/12/20 00:11:26;;;;;;;;;;;;;;;20.98;30.15;98997.95;104563;1257;75050;-65
2023/12/20 00:13:54;;;;;;;7.70;6.60;;;;;;;21.25;29.86;98994.70;104886;1257;62184;-65
2023/12/20 00:16:22;;;;;;;7.60;6.40;;;;;;;21.42;29.65;98989.73;104524;1258;60639;-64
2023/12/20 00:18:50;;;;;;;10.20;6.60;;;;;;;21.41;29.69;98988.10;104673;1257;73673;-65
2023/12/20 00:21:17;;;;;;;;;;;;;;;21.35;29.80;98983.73;104582;1258;68115;-65
2023/12/20 00:23:46;;;;;;;8.50;7.30;;;;;;;21.47;29.52;98978.96;104950;1257;72936;-66
2023/12/20 00:26:13;;;;;;;;;;;;;;;21.20;29.86;98982.47;104804;1257;62359;-66
2023/12/20 00:28:42;;;;;;;9.90;7.30;;;;;;;21.13;29.79;98978.89;104829;1256;60533;-65
2023/12/20 00:31:10;;;;;;;8.90;7.70;;;;;;;21.25;29.90;98978.64;104671;1253;74122;-68
2023/12/20 00:33:39;;;;;;;8.60;6.70;;;;;;;20.98;29.95;98969.88;105153;1252;69887;-65
2023/12/20 00:36:10;;;;;;;8.30;6.30;;;;;;;20.82;30.46;98964.05;104884;1257;72411;-64
2023/12/20 00:38:38;;;;;;;9.70;7.10;;;;;;;20.76;30.34;98964.87;104532;1269;60561;-64
2023/12/20 00:41:06;;;;;;;7.80;6.20;;;;;;;20.67;30.34;98957.83;104562;1251;60511;-62
2023/12/20 00:43:33;;;;;;;13.10;7.10;;;;;;;20.40;30.63;98955.02;104523;1257;74230;-64
2023/12/20 00:46:01;;;;;;;;;;;;;;;20.51;30.68;98945.10;104447;1259;68018;-65
2023/12/20 00:48:31;;;;;;;7.70;6.90;;;;;;;20.57;30.60;98939.38;104808;1252;74042;-65
2023/12/20 00:50:58;;;;;;;8.70;6.20;;;;;;;20.82;30.37;98934.66;104516;1256;60649;-64
2023/12/20 00:53:26;;;;;;;;;;;;;;;20.58;30.75;98930.23;104562;1256;60528;-64
2023/12/20 00:55:54;;;;;;;;;;;;;;;20.73;30.71;98928.81;104783;1257;73658;-64
2023/12/20 00:58:21;;;;;;;;;;;;;;;20.80;30.51;98922.26;104748;1253;69186;-64
2023/12/20 01:00:51;;;;;;;15.60;7.10;;;;;;;20.62;30.43;98919.16;104695;1265;72353;-64
2023/12/20 01:03:19;;;;;;;9.90;6.80;;;;;;;20.25;30.84;98917.48;104693;1253;60514;-64
2023/12/20 01:05:46;;;;;;;10.30;6.80;;;;;;;20.21;30.92;98913.57;104486;1260;60549;-64
2023/12/20 01:08:14;;;;;;;;;;;;;;;20.38;30.92;98913.94;104513;1254;74578;-65
2023/12/20 01:10:42;;;;;;;;;;;;;;;20.50;30.78;98908.72;104534;1260;69890;-64
2023/12/20 01:13:11;;;;;;;7.10;6.40;;;;;;;20.49;30.74;98904.88;104768;1258;72474;-64
2023/12/20 01:15:39;;;;;;;7.60;6.50;;;;;;;20.28;30.92;98897.66;104595;1253;60590;-64
2023/12/20 01:18:06;;;;;;;10.10;7.00;;;;;;;20.40;30.91;98898.42;104362;1257;60636;-64
2023/12/20 01:20:34;;;;;;;7.70;5.90;;;;;;;20.53;30.84;98899.38;104673;1258;73637;-65
2023/12/20 01:23:02;;;;;;;;;;;;;;;20.60;30.80;98890.88;104625;1259;69238;-64
2023/12/20 01:25:32;;;;;;;;;;;;;;;20.51;30.82;98884.11;104868;1258;71243;-65
2023/12/20 01:27:59;;;;;;;9.90;6.80;;;;;;;20.28;31.03;98885.55;104595;1257;60546;-65
2023/12/20 01:30:27;;;;;;;;;;;;;;;20.31;31.08;98882.86;104793;1253;60546;-64
2023/12/20 01:32:56;;;;;;;12.50;6.80;;;;;;;20.30;31.09;98886.40;104602;1257;73677;-64
2023/12/20 01:35:23;;;;;;;9.50;6.90;;;;;;;20.21;31.25;98885.25;104504;1259;69165;-64
2023/12/20 01:37:51;;;;;;;7.70;6.80;;;;;;;20.23;31.25;98886.00;104765;1267;71805;-64
2023/12/20 01:40:19;;;;;;;;;;;;;;;20.32;31.14;98885.30;105085;1253;60495;-65
2023/12/20 01:42:47;;;;;;;8.40;6.40;;;;;;;20.50;31.01;98878.92;104666;1257;61134;-65
2023/12/20 01:45:15;;;;;;;8.50;6.60;;;;;;;20.68;30.71;98877.60;104686;1257;74029;-66
2023/12/20 01:47:43;;;;;;;13.80;6.60;;;;;;;20.69;30.61;98870.94;104561;1256;71337;-66
2023/12/20 01:50:11;;;;;;;7.70;6.40;;;;;;;20.70;30.77;98869.58;104324;1259;72833;-64
2023/12/20 01:52:38;;;;;;;;;;;;;;;20.62;30.86;98864.64;104665;1256;60636;-64
2023/12/20 01:55:12;;;;;;;7.80;6.00;;;;;;;20.57;30.94;98861.73;104721;1252;60440;-65
2023/12/20 01:57:41;;;;;;;8.20;6.50;;;;;;;20.37;31.32;98859.77;104510;1258;74072;-64
2023/12/20 02:00:10;;;;;;;6.60;5.80;;;;;;;20.30;31.35;98854.90;104770;1254;69175;-65
2023/12/20 02:02:41;;;;;;;12.70;7.00;;;;;;;20.59;31.01;98856.46;105219;1253;72395;-64
2023/12/20 02:05:09;;;;;;;11.60;6.90;;;;;;;20.55;31.12;98853.42;104479;1253;60584;-63
2023/12/20 02:07:37;;;;;;;10.80;6.90;;;;;;;20.59;31.11;98847.34;104353;1254;60528;-64
2023/12/20 02:10:05;;;;;;;9.00;6.20;;;;;;;20.53;31.10;98842.38;104335;1256;73518;-65
2023/12/20 02:12:33;;;;;;;9.40;6.70;;;;;;;20.68;30.67;98848.45;104690;1253;69442;-63
2023/12/20 02:15:05;;;;;;;9.30;7.20;;;;;;;20.25;31.22;98845.77;104633;1257;72330;-64
2023/12/20 02:17:33;;;;;;;10.10;7.60;;;;;;;20.12;31.53;98836.52;104724;1253;60479;-64
2023/12/20 02:20:01;;;;;;;8.30;6.90;;;;;;;20.09;31.60;98834.48;104518;1258;60996;-63
2023/12/20 02:22:29;;;;;;;10.60;7.70;;;;;;;20.14;31.54;98832.08;104678;1253;73697;-64
2023/12/20 02:24:56;;;;;;;11.30;8.40;;;;;;;19.93;31.57;98826.16;104688;1257;69384;-64
2023/12/20 02:27:24;;;;;;;;;;;;;;;20.24;31.30;98820.61;104729;1253;72433;-64
2023/12/20 02:29:52;;;;;;;10.20;7.90;;;;;;;19.97;31.70;98821.02;104554;1257;60634;-64
2023/12/20 02:32:20;;;;;;;7.80;7.00;;;;;;;19.63;32.00;98814.29;104382;1260;59866;-64
2023/12/20 02:34:48;;;;;;;10.30;7.50;;;;;;;19.70;32.15;98817.84;104729;1265;74455;-64
2023/12/20 02:37:16;;;;;;;11.50;8.40;;;;;;;19.66;31.95;98812.87;105271;1254;69660;-65
2023/12/20 02:39:45;;;;;;;9.70;7.40;;;;;;;19.71;31.90;98807.42;104678;1257;72445;-64
2023/12/20 02:42:13;;;;;;;8.90;8.00;;;;;;;19.98;31.78;98807.95;104486;1254;60870;-65
2023/12/20 02:44:40;;;;;;;8.70;7.60;;;;;;;20.34;31.30;98806.48;104382;1260;60438;-66
2023/12/20 02:47:08;;;;;;;11.00;8.10;;;;;;;20.41;31.14;98806.89;104458;1272;73586;-66
2023/12/20 02:49:36;;;;;;;9.80;7.80;;;;;;;20.61;30.93;98798.59;104331;1258;70208;-65
2023/12/20 02:52:05;;;;;;;10.80;8.20;;;;;;;20.75;30.74;98800.76;104631;1257;73006;-66
2023/12/20 02:54:32;;;;;;;9.80;8.10;;;;;;;20.78;30.65;98801.89;104556;1253;60584;-65
2023/12/20 02:57:00;;;;;;;8.70;7.80;;;;;;;20.73;30.67;98799.90;104355;1256;59781;-65
2023/12/20 02:59:28;;;;;;;10.40;7.60;;;;;;;20.26;31.18;98797.41;104761;1252;73622;-66
2023/12/20 03:01:55;;;;;;;9.80;8.40;;;;;;;19.86;31.72;98794.92;104446;1257;69139;-65
2023/12/20 03:04:23;;;;;;;10.20;8.30;;;;;;;20.07;31.53;98796.65;104695;1257;71980;-66
2023/12/20 03:07:03;;;;;;;11.30;8.40;;;;;;;20.00;31.57;98799.27;104444;1257;60644;-65
2023/12/20 03:09:31;;;;;;;10.50;8.70;;;;;;;19.81;31.75;98795.38;104601;1254;60951;-65
2023/12/20 03:12:19;;;;;;;11.00;8.20;;;;;;;19.92;31.60;98789.36;104515;1253;74088;-65
2023/12/20 03:14:48;;;;;;;10.00;8.30;;;;;;;19.90;31.70;98783.79;104729;1255;69891;-64
2023/12/20 03:17:16;;;;;;;9.60;8.50;;;;;;;20.01;31.57;98777.05;104978;1259;72393;-64
2023/12/20 03:19:43;;;;;;;9.80;8.30;;;;;;;19.91;31.52;98774.45;104824;1257;60673;-64
2023/12/20 03:22:11;;;;;;;12.70;8.40;;;;;;;20.57;30.78;98778.67;104392;1269;60560;-65
2023/12/20 03:24:38;;;;;;;12.30;9.10;;;;;;;20.69;30.64;98782.66;104625;1257;72876;-65
2023/12/20 03:27:07;;;;;;;10.10;8.60;;;;;;;20.71;30.61;98784.20;104676;1256;69237;-65
2023/12/20 03:29:35;;;;;;;13.30;9.10;;;;;;;20.63;30.50;98795.61;104415;1259;72359;-66
2023/12/20 03:32:03;;;;;;;10.90;9.10;;;;;;;20.54;30.58;98794.38;104511;1254;60562;-64
2023/12/20 03:34:31;;;;;;;11.60;9.40;;;;;;;20.33;30.56;98792.99;104698;1256;60106;-65
2023/12/20 03:36:58;;;;;;;;;;;;;;;19.81;31.27;98793.54;104503;1257;74097;-66
2023/12/20 03:39:26;;;;;;;15.00;9.50;;;;;;;19.46;31.69;98795.03;104652;1257;69153;-65
2023/12/20 03:41:54;;;;;;;;;;;;;;;19.22;31.95;98795.84;104651;1272;72513;-64
2023/12/20 03:44:21;;;;;;;;;;;;;;;19.26;31.94;98805.56;105014;1256;60679;-66
2023/12/20 03:46:49;;;;;;;11.80;8.50;;;;;;;19.58;31.67;98808.82;104783;1259;60285;-65
2023/12/20 03:49:17;;;;;;;10.70;9.10;;;;;;;19.57;31.66;98805.17;104774;1254;74072;-68
2023/12/20 03:51:45;;;;;;;13.00;9.00;;;;;;;19.64;31.53;98806.11;104621;1259;70298;-65
2023/12/20 03:54:12;;;;;;;;;;;;;;;19.70;31.46;98803.97;104337;1275;72463;-66
2023/12/20 03:56:40;;;;;;;10.10;8.10;;;;;;;19.86;31.20;98803.04;105145;1253;61895;-65
2023/12/20 03:59:07;;;;;;;11.20;9.10;;;;;;;19.64;31.46;98803.48;104516;1254;60510;-65
2023/12/20 04:01:35;;;;;;;12.60;9.30;;;;;;;19.61;31.46;98801.82;104511;1256;74511;-65
2023/12/20 04:04:03;;;;;;;10.80;8.60;;;;;;;19.63;31.38;98797.15;104944;1256;69034;-65
2023/12/20 04:06:31;;;;;;;13.10;9.50;;;;;;;19.54;31.43;98793.36;104710;1257;72387;-64
2023/12/20 04:08:59;;;;;;;14.30;9.60;;;;;;;19.55;31.37;98792.04;104591;1253;60565;-62
2023/12/20 04:11:27;;;;;;;10.50;7.90;;;;;;;19.57;31.46;98787.80;104985;1258;60444;-62
2023/12/20 04:13:55;;;;;;;12.40;8.40;;;;;;;19.62;31.37;98790.14;104737;1258;72642;-63
2023/12/20 04:16:25;;;;;;;10.60;8.90;;;;;;;19.55;31.40;98789.77;104665;1264;69051;-64
2023/12/20 04:18:52;;;;;;;11.20;9.00;;;;;;;19.53;31.37;98790.50;104699;1258;72898;-64
2023/12/20 04:21:20;;;;;;;15.40;9.70;;;;;;;19.63;31.20;98791.34;104363;1253;60616;-64
2023/12/20 04:23:48;;;;;;;10.60;8.70;;;;;;;19.70;31.11;98785.53;104403;1257;59745;-64
2023/12/20 04:26:16;;;;;;;12.90;9.80;;;;;;;19.72;30.96;98785.90;104795;1257;73905;-65
2023/12/20 04:28:44;;;;;;;11.30;8.80;;;;;;;19.84;30.92;98786.02;104429;1267;69783;-64
2023/12/20 04:31:11;;;;;;;9.60;7.60;;;;;;;19.79;30.73;98790.69;104453;1254;72581;-64
2023/12/20 04:33:39;;;;;;;;;;;;;;;19.69;30.93;98790.38;104595;1253;60648;-64
2023/12/20 04:36:08;;;;;;;;;;;;;;;19.84;30.61;98793.42;104744;1257;60578;-64
2023/12/20 04:38:36;;;;;;;11.90;7.90;;;;;;;19.83;30.68;98792.13;104557;1257;73685;-65
2023/12/20 04:41:05;;;;;;;11.10;7.30;;;;;;;19.86;30.58;98796.64;104820;1257;69603;-64
2023/12/20 04:43:33;;;;;;;11.00;7.50;;;;;;;20.02;30.47;98797.23;104426;1272;71837;-65
2023/12/20 04:46:00;;;;;;;9.60;8.00;;;;;;;19.51;31.15;98803.97;104426;1267;61026;-65
2023/12/20 04:48:28;;;;;;;8.40;7.50;;;;;;;19.53;30.99;98807.23;104382;1258;60567;-64
2023/12/20 04:50:56;;;;;;;;;;;;;;;19.40;31.23;98804.40;104761;1265;74478;-64
2023/12/20 04:53:24;;;;;;;;;;;;;;;19.80;30.62;98802.69;104591;1254;69158;-64
2023/12/20 04:55:51;;;;;;;9.50;7.30;;;;;;;19.74;30.67;98794.27;104491;1253;72932;-64
2023/12/20 04:58:19;;;;;;;11.80;7.90;;;;;;;19.77;30.57;98797.49;104346;1256;60955;-64
2023/12/20 05:00:47;;;;;;;10.80;7.80;;;;;;;19.84;30.62;98802.13;104388;1262;59669;-64
2023/12/20 05:03:14;;;;;;;12.20;8.20;;;;;;;19.88;30.51;98796.08;104757;1255;73562;-64
2023/12/20 05:05:42;;;;;;;9.50;7.60;;;;;;;19.98;30.51;98797.34;104969;1257;68438;-65
2023/12/20 05:08:10;;;;;;;10.20;8.10;;;;;;;20.00;30.35;98799.94;104569;1256;72817;-65
2023/12/20 05:10:40;;;;;;;;;;;;;;;20.08;30.38;98804.00;104724;1254;62087;-65
2023/12/20 05:13:07;;;;;;;10.40;7.90;;;;;;;20.17;30.03;98795.31;104357;1259;60603;-65
2023/12/20 05:15:35;;;;;;;;;;;;;;;20.00;30.17;98798.30;104550;1267;72612;-65
2023/12/20 05:18:04;;;;;;;11.30;7.90;;;;;;;20.31;29.87;98798.59;104358;1259;69434;-64
2023/12/20 05:20:32;;;;;;;10.70;7.90;;;;;;;19.90;30.15;98799.84;104528;1258;71487;-64
2023/12/20 05:22:59;;;;;;;10.30;8.00;;;;;;;19.95;30.29;98805.04;104558;1257;60616;-64
2023/12/20 05:25:27;;;;;;;9.30;7.50;;;;;;;19.96;30.30;98809.23;104554;1251;60178;-65
2023/12/20 05:27:56;;;;;;;;;;;;;;;20.00;30.24;98809.15;104479;1251;73791;-64
2023/12/20 05:30:23;;;;;;;12.60;7.60;;;;;;;20.13;30.09;98804.05;105074;1256;69400;-64
2023/12/20 05:32:51;;;;;;;;;;;;;;;20.24;29.92;98804.41;104977;1254;71459;-64
2023/12/20 05:35:19;;;;;;;11.60;7.10;;;;;;;20.42;29.82;98805.54;104536;1257;61706;-65
2023/12/20 05:37:47;;;;;;;9.80;7.90;;;;;;;20.54;29.58;98806.67;104373;1263;60107;-64
2023/12/20 05:40:14;;;;;;;9.90;7.80;;;;;;;20.41;29.80;98803.86;104827;1257;74508;-65
2023/12/20 05:42:43;;;;;;;9.70;7.00;;;;;;;20.62;29.55;98802.38;105456;1257;69045;-65
2023/12/20 05:45:11;;;;;;;13.80;8.00;;;;;;;20.59;29.42;98800.85;104436;1256;71747;-65
2023/12/20 05:47:39;;;;;;;13.60;8.00;;;;;;;20.20;29.89;98800.16;104372;1259;60666;-64
2023/12/20 05:50:07;;;;;;;9.10;7.30;;;;;;;20.29;29.83;98797.48;104407;1254;60502;-64
2023/12/20 05:52:34;;;;;;;;;;;;;;;20.18;29.99;98801.02;104437;1265;73602;-65
2023/12/20 05:55:02;;;;;;;11.00;8.10;;;;;;;19.85;30.04;98788.23;104845;1257;68613;-64
2023/12/20 05:57:30;;;;;;;14.10;7.90;;;;;;;20.01;29.94;98794.15;104507;1258;73335;-64
2023/12/20 05:59:58;;;;;;;11.00;8.70;;;;;;;20.07;29.97;98797.55;104530;1255;60474;-64
2023/12/20 06:02:25;;;;;;;10.20;8.00;;;;;;;20.02;29.98;98800.77;104678;1254;60607;-65
2023/12/20 06:04:53;;;;;;;9.40;7.80;;;;;;;20.19;29.82;98797.75;104316;1259;74078;-64
2023/12/20 06:07:22;;;;;;;11.80;8.20;;;;;;;20.36;29.46;98795.62;104648;1258;69273;-63
2023/12/20 06:09:50;;;;;;;10.60;7.70;;;;;;;20.05;29.72;98789.26;104483;1268;72675;-64
2023/12/20 06:12:18;;;;;;;10.10;7.50;;;;;;;19.61;30.31;98789.72;104539;1257;60782;-65
2023/12/20 06:14:46;;;;;;;10.80;7.70;;;;;;;19.49;30.38;98790.33;104341;1257;60451;-64
2023/12/20 06:17:13;;;;;;;12.40;8.50;;;;;;;19.25;30.71;98792.48;104402;1266;73750;-65
2023/12/20 06:19:47;;;;;;;;;;;;;;;19.38;30.68;98792.15;104335;1269;69204;-64
2023/12/20 06:22:16;;;;;;;9.80;7.50;;;;;;;19.61;30.56;98796.13;104397;1272;72857;-65
2023/12/20 06:24:43;;;;;;;10.10;7.40;;;;;;;19.77;30.35;98794.10;104624;1260;60691;-65
2023/12/20 06:27:11;;;;;;;13.30;8.10;;;;;;;19.98;30.04;98794.26;105010;1257;59834;-65
2023/12/20 06:29:40;;;;;;;11.50;8.40;;;;;;;19.95;30.22;98795.94;104479;1256;74331;-65
2023/12/20 06:32:09;;;;;;;10.20;7.60;;;;;;;19.97;30.20;98793.48;104478;1263;70037;-64
2023/12/20 06:34:38;;;;;;;14.30;8.20;;;;;;;19.75;30.39;98793.36;104576;1273;71086;-64
2023/12/20 06:37:06;;;;;;;13.90;8.10;;;;;;;19.94;30.31;98800.02;104878;1258;60583;-64
2023/12/20 06:39:33;;;;;;;13.20;8.80;;;;;;;20.00;30.13;98807.41;104774;1254;60540;-64
2023/12/20 06:42:01;;;;;;;9.70;7.70;;;;;;;19.75;30.23;98808.39;104426;1269;73762;-64
2023/12/20 06:44:31;;;;;;;12.20;8.80;;;;;;;19.61;30.33;98814.04;104618;1258;70453;-64
2023/12/20 06:46:59;;;;;;;12.60;8.20;;;;;;;19.57;30.47;98816.37;104750;1257;72589;-63
2023/12/20 06:49:27;;;;;;;12.40;8.30;;;;;;;19.60;30.72;98808.30;104766;1257;61522;-64
2023/12/20 06:51:54;;;;;;;11.00;8.20;;;;;;;19.71;30.70;98808.70;104402;1256;60375;-64
2023/12/20 06:54:22;;;;;;;12.30;8.00;;;;;;;19.44;30.84;98813.27;104845;1257;74549;-64
2023/12/20 06:56:52;;;;;;;13.10;8.50;;;;;;;19.41;30.82;98814.17;104783;1260;69220;-64
2023/12/20 06:59:20;;;;;;;10.80;7.80;;;;;;;19.63;30.64;98807.11;104697;1272;72252;-63
2023/12/20 07:01:48;;;;;;;9.70;8.10;;;;;;;19.59;30.74;98805.51;104672;1259;61186;-64
2023/12/20 07:04:20;;;;;;;11.30;7.90;;;;;;;19.56;30.87;98800.52;104446;1256;60617;-64
2023/12/20 07:06:51;;;;;;;9.50;7.60;;;;;;;19.68;30.66;98802.70;104582;1258;74346;-63
2023/12/20 07:09:20;;;;;;;11.00;8.20;;;;;;;19.63;30.82;98803.92;104967;1255;69494;-64
2023/12/20 07:11:48;;;;;;;8.70;7.50;;;;;;;20.33;30.06;98807.86;104451;1267;72922;-62
2023/12/20 07:14:16;;;;;;;11.30;8.40;;;;;;;20.21;30.13;98804.34;104307;1254;61065;-69
2023/12/20 07:16:43;;;;;;;;;;;;;;;20.04;30.53;98801.36;104612;1259;59952;-66
2023/12/20 07:19:11;;;;;;;12.00;7.50;;;;;;;20.13;30.38;98799.27;104609;1257;74052;-62
2023/12/20 07:21:39;;;;;;;11.80;8.20;;;;;;;20.13;30.32;98791.25;105069;1253;69431;-64
2023/12/20 07:24:07;;;;;;;9.20;7.50;;;;;;;20.42;30.12;98796.23;104360;1270;1016757;-65
2023/12/20 07:27:30;;;;;;;9.60;7.50;;;;;;;19.81;32.17;98794.32;101306;1299;600722;-66
2023/12/20 07:29:58;;;;;;;;;;;;;;;21.66;28.84;98789.11;103522;1267;59885;-66
2023/12/20 07:32:27;;;;;;;11.70;7.20;;;;;;;21.88;28.62;98783.01;103431;1273;59553;-62
2023/12/20 07:34:54;;;;;;;9.70;8.40;;;;;;;22.23;28.14;98789.13;103783;1273;71926;-65
2023/12/20 07:37:22;;;;;;;8.60;7.60;;;;;;;22.03;28.30;98790.54;103761;1274;69765;-64
2023/12/20 07:39:50;;;;;;;9.70;7.20;;;;;;;21.96;28.36;98787.98;103702;1272;72551;-64
2023/12/20 07:42:18;;;;;;;8.60;7.60;;;;;;;21.64;28.67;98785.29;103797;1266;134721;-66
2023/12/20 07:44:47;;;;;;;8.40;7.40;;;;;;;21.68;28.70;98786.65;104068;1267;60171;-60
2023/12/20 07:47:18;;;;;;;8.80;6.90;;;;;;;21.66;28.70;98786.88;103664;1269;72741;-60
2023/12/20 07:49:45;;;;;;;11.90;7.80;;;;;;;21.44;29.02;98786.07;103761;1270;69546;-61
2023/12/20 07:52:13;;;;;;;9.70;6.40;;;;;;;21.00;29.30;98781.88;103806;1269;73013;-61
2023/12/20 07:54:41;;;;;;;8.30;6.80;;;;;;;20.96;29.38;98769.10;103958;1270;61583;-60
2023/12/20 07:57:10;;;;;;;;;;;;;;;20.99;29.43;98758.87;103814;1276;59871;-63
2023/12/20 07:59:40;;;;;;;9.50;7.20;;;;;;;21.06;29.30;98755.26;104056;1270;72922;-68
2023/12/20 08:02:08;;;;;;;;;;;;;;;21.01;29.48;98755.98;104231;1264;69192;-72
2023/12/20 08:04:36;;;;;;;9.90;7.20;;;;;;;20.78;29.63;98757.38;103984;1270;72385;-72
2023/12/20 08:07:04;;;;;;;10.50;7.20;;;;;;;20.73;29.85;98761.91;104557;1257;59814;-72
2023/12/20 08:09:33;;;;;;;;;;;;;;;20.73;29.77;98765.28;104141;1264;59736;-72
2023/12/20 19:43:40;;;;;;;19.20;14.60;;;;;;;21.04;32.57;98349.30;101718;1288;601637;-61
2023/12/20 19:46:08;;;;;;;17.80;15.20;;;;;;;22.71;29.21;98343.86;103798;1266;60106;-61
2023/12/20 19:48:36;;;;;;;21.20;15.20;;;;;;;22.59;29.13;98345.35;103964;1266;59386;-61
2023/12/20 19:51:04;;;;;;;;;;;;;;;22.38;29.25;98340.45;103963;1265;71567;-61
2023/12/20 19:53:32;;;;;;;18.60;14.80;;;;;;;22.13;29.54;98321.30;104193;1266;71717;-71
2023/12/20 19:56:02;;;;;;;;;;;;;;;21.97;29.70;98340.13;103803;1267;73543;-70
2023/12/20 19:58:30;;;;;;;18.30;14.50;;;;;;;21.98;29.76;98339.85;104267;1259;251599;-68
2023/12/20 20:00:57;;;;;;;;;;;;;;;21.85;29.60;98338.84;104791;1259;59250;-69
2023/12/20 20:03:26;;;;;;;24.10;16.00;;;;;;;21.71;29.88;98336.79;104775;1256;72779;-70
2023/12/20 20:05:53;;;;;;;22.10;16.60;;;;;;;21.69;29.87;98336.83;104501;1262;71945;-69
2023/12/20 20:08:24;;;;;;;19.50;15.20;;;;;;;21.67;29.92;98342.55;105236;1253;72751;-70
2023/12/20 20:10:52;;;;;;;20.80;16.50;;;;;;;21.66;29.95;98344.05;104844;1253;59742;-70
2023/12/20 20:13:21;;;;;;;21.70;17.40;;;;;;;21.75;29.90;98338.59;105000;1258;61796;-69
2023/12/20 20:15:50;;;;;;;26.00;19.10;;;;;;;21.84;29.79;98341.96;104990;1258;73190;-67
2023/12/20 20:18:21;;;;;;;;;;;;;;;21.86;29.73;98346.14;105136;1256;70080;-71
2023/12/20 20:20:48;;;;;;;21.20;15.60;;;;;;;21.65;29.95;98342.20;104762;1253;72113;-69
2023/12/20 20:23:17;;;;;;;20.40;15.90;;;;;;;21.59;30.05;98337.90;104793;1253;60845;-69
2023/12/20 20:25:45;;;;;;;22.10;15.30;;;;;;;21.63;30.11;98332.11;104786;1254;59733;-67
2023/12/20 20:28:14;;;;;;;20.70;15.80;;;;;;;21.62;30.11;98330.23;104797;1257;72273;-71
2023/12/20 20:30:42;;;;;;;19.50;15.20;;;;;;;21.66;30.05;98330.75;104763;1257;70203;-68
2023/12/20 20:33:09;;;;;;;22.20;16.80;;;;;;;21.37;30.38;98336.90;104836;1260;72727;-69
2023/12/20 20:35:37;;;;;;;;;;;;;;;21.38;30.35;98338.90;104814;1253;59890;-69
2023/12/20 20:38:05;;;;;;;25.30;18.20;;;;;;;21.45;30.30;98337.28;105149;1256;63108;-69
2023/12/20 20:40:34;;;;;;;;;;;;;;;21.44;30.31;98336.64;104970;1254;72869;-69
2023/12/20 20:43:02;;;;;;;24.30;17.00;;;;;;;21.25;30.38;98338.70;105072;1255;70193;-68
2023/12/20 20:45:30;;;;;;;19.80;16.40;;;;;;;21.18;30.59;98346.55;104993;1258;73707;-68
2023/12/20 20:47:58;;;;;;;24.00;17.70;;;;;;;21.26;30.47;98341.27;105323;1253;59778;-69
2023/12/20 20:50:43;;;;;;;23.30;17.80;;;;;;;20.90;31.02;98346.88;105220;1255;60536;-67
2023/12/20 20:53:10;;;;;;;;;;;;;;;20.68;31.20;98345.98;105341;1257;72777;-62
2023/12/20 20:55:38;;;;;;;;;;;;;;;20.61;31.43;98346.90;104815;1258;69650;-63
2023/12/20 20:58:06;;;;;;;;;;;;;;;20.52;31.46;98344.23;104768;1253;72485;-63
2023/12/20 21:00:33;;;;;;;;;;;;;;;20.57;31.36;98345.11;105180;1252;60985;-63
2023/12/20 21:03:01;;;;;;;23.10;16.20;;;;;;;20.93;31.09;98341.08;105249;1253;60603;-66
2023/12/20 21:05:28;;;;;;;;;;;;;;;20.85;31.13;98337.44;104998;1255;71766;-66
2023/12/20 21:07:57;;;;;;;23.00;16.00;;;;;;;20.71;31.27;98333.71;104924;1256;69743;-66
2023/12/20 21:10:26;;;;;;;23.50;17.40;;;;;;;20.76;31.08;98326.16;105179;1256;72738;-65
2023/12/20 21:12:53;;;;;;;23.20;17.00;;;;;;;20.63;31.35;98325.15;105266;1250;60784;-66
2023/12/20 21:15:21;;;;;;;23.90;16.80;;;;;;;20.72;31.12;98330.29;104344;1265;59791;-65
2023/12/20 21:17:49;;;;;;;20.40;16.20;;;;;;;20.55;31.41;98328.48;104536;1253;73105;-65
2023/12/20 21:20:17;;;;;;;21.60;16.30;;;;;;;20.72;31.29;98327.73;105016;1252;69139;-65
2023/12/20 21:22:46;;;;;;;26.10;16.10;;;;;;;20.63;31.37;98325.00;104632;1257;73402;-66
2023/12/20 21:25:14;;;;;;;24.70;16.10;;;;;;;20.60;31.30;98320.67;104948;1252;60653;-65
2023/12/20 21:27:41;;;;;;;21.10;15.30;;;;;;;20.34;31.61;98317.79;104840;1253;61101;-65
2023/12/20 21:30:10;;;;;;;18.90;14.70;;;;;;;20.25;31.70;98312.50;104676;1252;73679;-65
2023/12/20 21:32:38;;;;;;;18.00;14.30;;;;;;;20.42;31.51;98301.50;104765;1253;70171;-65
2023/12/20 21:35:08;;;;;;;19.90;15.20;;;;;;;20.39;31.55;98291.31;105107;1252;72509;-65
2023/12/20 21:37:37;;;;;;;20.90;15.30;;;;;;;20.46;31.17;98293.44;104933;1253;60663;-65
2023/12/20 21:40:07;;;;;;;18.10;15.10;;;;;;;20.21;31.64;98295.91;104513;1256;59647;-65
2023/12/20 21:42:35;;;;;;;20.90;15.50;;;;;;;20.35;31.50;98286.90;104723;1272;72583;-66
2023/12/20 21:45:03;;;;;;;21.30;15.40;;;;;;;20.53;31.24;98284.73;104682;1259;69116;-66
2023/12/20 21:47:32;;;;;;;20.40;15.60;;;;;;;20.70;31.01;98288.30;104764;1253;73142;-65
2023/12/20 21:50:00;;;;;;;18.60;15.10;;;;;;;20.68;30.89;98294.50;104576;1265;62553;-65
2023/12/20 21:52:27;;;;;;;;;;;;;;;20.65;31.00;98298.45;104780;1254;59775;-65
2023/12/20 21:54:55;;;;;;;;;;;;;;;20.30;31.18;98301.02;105011;1256;72133;-65
2023/12/20 21:57:23;;;;;;;22.20;14.90;;;;;;;20.07;31.37;98300.30;104849;1252;70140;-66
2023/12/20 21:59:51;;;;;;;;;;;;;;;20.05;31.53;98298.26;104801;1253;73386;-64
2023/12/20 22:02:18;;;;;;;;;;;;;;;20.35;31.14;98299.00;104469;1261;60762;-63
2023/12/20 22:04:46;;;;;;;18.60;14.60;;;;;;;20.14;31.22;98298.23;105088;1255;59711;-64
2023/12/20 22:07:14;;;;;;;18.60;14.40;;;;;;;19.81;31.57;98303.36;104800;1259;74121;-64
2023/12/20 22:09:41;;;;;;;19.90;14.60;;;;;;;19.80;31.67;98297.09;104880;1259;69889;-64
2023/12/20 22:12:10;;;;;;;20.30;14.50;;;;;;;20.08;31.25;98300.05;104665;1253;71491;-64
2023/12/20 22:14:38;;;;;;;18.40;13.80;;;;;;;19.84;31.49;98301.29;105006;1253;62045;-64
2023/12/20 22:17:05;;;;;;;19.30;14.40;;;;;;;19.96;31.46;98306.50;104917;1254;60739;-64
2023/12/20 22:19:33;;;;;;;19.00;14.90;;;;;;;20.27;31.17;98308.24;104460;1258;72929;-64
2023/12/20 22:22:01;;;;;;;;;;;;;;;20.41;30.87;98307.48;104982;1256;69002;-65
2023/12/20 22:24:29;;;;;;;17.30;13.50;;;;;;;20.39;30.86;98315.54;104432;1256;73846;-64
2023/12/20 22:27:00;;;;;;;23.60;14.90;;;;;;;20.08;31.08;98315.58;104514;1253;60445;-65
2023/12/20 22:29:28;;;;;;;20.10;13.70;;;;;;;20.42;30.71;98311.65;104717;1252;60036;-65
2023/12/20 22:31:56;;;;;;;18.80;14.40;;;;;;;20.55;30.46;98314.38;104405;1263;71592;-64
2023/12/20 22:34:24;;;;;;;16.30;13.10;;;;;;;20.32;30.62;98317.57;105111;1253;68528;-65
2023/12/20 22:36:52;;;;;;;;;;;;;;;20.00;30.94;98316.88;104989;1257;72458;-64
2023/12/20 22:39:19;;;;;;;17.30;12.60;;;;;;;19.83;31.03;98325.41;104495;1258;61584;-64
2023/12/20 22:41:47;;;;;;;18.70;12.20;;;;;;;19.80;31.17;98324.11;104945;1255;59672;-65
2023/12/20 22:44:16;;;;;;;16.50;12.60;;;;;;;19.74;31.20;98320.98;104652;1256;75693;-65
2023/12/20 22:46:43;;;;;;;13.90;12.00;;;;;;;19.72;31.14;98321.67;104440;1253;69382;-64
2023/12/20 22:49:11;;;;;;;;;;;;;;;19.84;30.99;98325.27;104530;1273;72136;-64
2023/12/20 22:51:39;;;;;;;17.10;12.60;;;;;;;19.79;31.03;98334.15;104487;1254;61147;-64
2023/12/20 22:54:07;;;;;;;17.30;12.70;;;;;;;19.85;31.10;98336.98;105227;1256;59712;-65
2023/12/20 22:56:35;;;;;;;17.70;12.60;;;;;;;19.76;31.08;98337.83;104817;1253;73270;-66
2023/12/20 22:59:03;;;;;;;19.80;12.60;;;;;;;19.83;30.97;98335.51;104335;1259;69170;-64
2023/12/20 23:01:32;;;;;;;;;;;;;;;19.80;31.04;98330.31;104499;1264;72370;-64
2023/12/20 23:04:00;;;;;;;16.00;12.40;;;;;;;19.74;31.04;98331.83;104578;1253;61407;-64
2023/12/20 23:06:27;;;;;;;13.90;11.50;;;;;;;19.73;31.11;98328.70;104553;1256;59814;-63
2023/12/20 23:08:56;;;;;;;15.10;10.50;;;;;;;19.53;31.26;98329.16;104546;1261;73144;-65